Time;durP1;ratioP1;P1;durP2;ratioP2;P2;SDS_P1;SDS_P2;PMS_P1;PMS_P2;Temp;Humidity;BMP_temperature;BMP_pressure;BME280_temperature;BME280_humidity;BME280_pressure;Samples;Min_cycle;Max_cycle;Signal;HPM_P1;HPM_P2
2023/08/05 00:00:03;;;;;;;13.80;4.10;;;20.30;78.20;;;;;;6162019;23;20079;-93
2023/08/05 00:02:31;;;;;;;12.60;4.10;;;20.20;78.80;;;;;;6187317;23;20443;-94
2023/08/05 00:04:58;;;;;;;9.40;3.90;;;20.20;79.00;;;;;;6162604;23;20447;-94
2023/08/05 00:07:27;;;;;;;11.52;4.45;;;20.20;79.00;;;;;;6186654;23;20017;-94
2023/08/05 00:09:54;;;;;;;10.00;4.53;;;20.20;79.00;;;;;;6161890;23;20013;-93
2023/08/05 00:12:32;;;;;;;11.03;4.43;;;20.20;79.30;;;;;;6164092;23;20027;-92
2023/08/05 00:15:04;;;;;;;10.63;5.13;;;20.20;79.30;;;;;;6162162;23;20024;-93
2023/08/05 00:17:31;;;;;;;9.70;4.38;;;20.20;79.40;;;;;;6161776;23;20017;-94
2023/08/05 00:19:59;;;;;;;11.27;4.78;;;20.10;79.40;;;;;;6186565;23;20059;-93
2023/08/05 00:22:27;;;;;;;11.43;5.53;;;20.10;79.60;;;;;;6161726;23;20017;-93
2023/08/05 00:24:55;;;;;;;17.03;5.80;;;20.10;80.30;;;;;;6162374;23;20024;-93
2023/08/05 00:27:24;;;;;;;12.48;5.70;;;20.00;80.20;;;;;;6186437;23;20017;-93
2023/08/05 00:30:16;;;;;;;;;;;;;;;;;;;;;
2023/08/05 00:32:56;;;;;;;13.25;5.75;;;20.00;80.20;;;;;;6185856;23;20060;-94
2023/08/05 00:35:23;;;;;;;10.77;5.28;;;20.00;79.90;;;;;;6161708;23;20021;-92
2023/08/05 00:37:59;;;;;;;11.90;5.67;;;20.00;79.60;;;;;;6163462;23;20029;-92
2023/08/05 00:40:27;;;;;;;13.93;5.43;;;20.10;79.80;;;;;;6162377;23;20540;-93
2023/08/05 00:42:54;;;;;;;11.70;6.15;;;20.10;79.90;;;;;;6161509;23;20455;-92
2023/08/05 00:45:22;;;;;;;10.07;5.43;;;20.00;80.40;;;;;;6161608;23;20027;-93
2023/08/05 00:47:52;;;;;;;13.10;5.85;;;20.00;80.30;;;;;;6161451;23;20025;-94
2023/08/05 00:50:22;;;;;;;14.87;6.07;;;20.00;80.30;;;;;;6162055;23;20024;-93
2023/08/05 00:52:50;;;;;;;10.68;5.28;;;20.00;80.20;;;;;;6160892;23;20017;-93
2023/08/05 00:55:21;;;;;;;14.05;5.78;;;20.00;80.20;;;;;;6161902;23;20024;-93
2023/08/05 00:57:52;;;;;;;13.50;6.53;;;20.00;80.20;;;;;;6161726;23;20021;-94
2023/08/05 01:00:22;;;;;;;15.18;5.78;;;20.00;80.60;;;;;;6161157;23;20017;-93
2023/08/05 01:02:56;;;;;;;14.43;6.17;;;19.90;80.60;;;;;;6161967;23;20108;-93
2023/08/05 01:05:24;;;;;;;11.23;6.38;;;19.90;80.60;;;;;;6161695;23;20013;-93
2023/08/05 01:07:52;;;;;;;11.38;5.95;;;19.90;80.70;;;;;;6162121;23;20025;-93
2023/08/05 01:10:19;;;;;;;12.48;5.75;;;19.90;80.80;;;;;;6161948;23;20024;-92
2023/08/05 01:12:49;;;;;;;12.40;5.72;;;19.90;81.10;;;;;;6161837;23;20021;-93
2023/08/05 01:15:19;;;;;;;17.10;6.67;;;19.90;81.00;;;;;;6161200;23;20463;-93
2023/08/05 01:17:55;;;;;;;13.13;5.88;;;19.90;80.90;;;;;;6186441;23;20045;-92
2023/08/05 01:20:30;;;;;;;14.10;7.03;;;19.90;80.80;;;;;;6186221;23;20017;-92
2023/08/05 01:23:07;;;;;;;12.38;6.20;;;19.70;81.20;;;;;;6186531;23;20406;-93
2023/08/05 01:25:37;;;;;;;11.88;5.53;;;19.60;81.50;;;;;;6186205;23;20028;-93
2023/08/05 01:28:08;;;;;;;14.47;5.93;;;19.60;81.60;;;;;;6162123;23;20051;-93
2023/08/05 01:30:43;;;;;;;12.50;6.47;;;19.60;81.50;;;;;;6161609;23;20059;-93
2023/08/05 01:33:15;;;;;;;15.27;6.00;;;19.60;81.40;;;;;;6185394;23;20021;-93
2023/08/05 01:35:49;;;;;;;14.13;6.40;;;19.60;81.40;;;;;;6160758;23;20475;-92
2023/08/05 01:38:16;;;;;;;13.23;6.93;;;19.70;81.20;;;;;;6185807;23;20021;-92
2023/08/05 01:40:45;;;;;;;14.17;6.30;;;19.60;81.50;;;;;;6161192;23;20103;-91
2023/08/05 01:43:12;;;;;;;13.18;6.22;;;19.50;81.90;;;;;;6185000;23;20021;-92
2023/08/05 01:45:40;;;;;;;14.40;5.82;;;19.40;82.20;;;;;;6161294;23;20112;-92
2023/08/05 01:48:10;;;;;;;13.68;6.40;;;19.40;81.90;;;;;;6161092;23;20024;-93
2023/08/05 01:50:40;;;;;;;14.30;5.97;;;19.50;82.20;;;;;;6161313;23;20017;-93
2023/08/05 01:53:10;;;;;;;13.13;6.93;;;19.50;82.40;;;;;;6161467;23;20108;-93
2023/08/05 01:55:37;;;;;;;12.75;5.93;;;19.50;82.10;;;;;;6161089;23;20017;-93
2023/08/05 01:58:12;;;;;;;13.88;6.72;;;19.50;82.20;;;;;;6161650;23;20021;-94
2023/08/05 02:00:52;;;;;;;12.02;6.53;;;19.50;82.40;;;;;;6162427;23;20515;-93
2023/08/05 02:03:20;;;;;;;12.77;6.82;;;19.50;82.30;;;;;;6185933;23;20017;-93
2023/08/05 02:05:50;;;;;;;13.67;6.37;;;19.50;82.30;;;;;;6161245;23;20483;-92
2023/08/05 02:08:21;;;;;;;12.68;5.78;;;19.50;82.10;;;;;;6162217;23;20024;-93
2023/08/05 02:10:54;;;;;;;13.93;7.30;;;19.60;82.10;;;;;;6161361;23;20459;-93
2023/08/05 02:13:24;;;;;;;11.25;6.00;;;19.60;81.80;;;;;;6162027;23;20021;-92
2023/08/05 02:15:55;;;;;;;12.95;6.15;;;19.60;81.90;;;;;;6160939;23;20428;-93
2023/08/05 02:18:25;;;;;;;12.27;6.37;;;19.60;82.00;;;;;;6161600;23;20017;-93
2023/08/05 02:20:55;;;;;;;16.10;7.78;;;19.60;82.10;;;;;;6161063;23;20021;-93
2023/08/05 02:23:22;;;;;;;12.90;6.90;;;19.50;82.50;;;;;;6161437;23;20024;-94
2023/08/05 02:25:50;;;;;;;14.85;6.55;;;19.50;82.80;;;;;;6160912;23;20099;-92
2023/08/05 02:28:17;;;;;;;14.18;6.93;;;19.50;82.80;;;;;;6160806;23;20017;-93
2023/08/05 02:30:48;;;;;;;13.50;6.23;;;19.40;82.90;;;;;;6161377;23;20024;-92
2023/08/05 02:33:15;;;;;;;13.50;6.65;;;19.50;82.70;;;;;;6185400;23;20414;-92
2023/08/05 02:35:46;;;;;;;14.05;6.53;;;19.50;82.50;;;;;;6161554;23;20071;-92
2023/08/05 02:38:15;;;;;;;12.43;6.85;;;19.50;82.40;;;;;;6160744;23;20021;-92
2023/08/05 02:40:43;;;;;;;13.75;6.93;;;19.50;82.30;;;;;;6161248;23;20104;-93
2023/08/05 02:43:10;;;;;;;13.57;6.63;;;19.50;82.30;;;;;;6161404;23;20021;-93
2023/08/05 02:45:41;;;;;;;11.63;5.88;;;19.50;82.20;;;;;;6187595;23;20013;-92
2023/08/05 02:48:08;;;;;;;12.15;5.57;;;19.50;82.20;;;;;;6163012;23;20021;-92
2023/08/05 02:50:42;;;;;;;11.75;6.63;;;19.60;82.20;;;;;;6162311;23;20017;-92
2023/08/05 02:53:09;;;;;;;12.20;6.22;;;19.50;82.00;;;;;;6162717;23;20063;-92
2023/08/05 02:55:36;;;;;;;14.97;6.40;;;19.60;82.00;;;;;;6186943;23;20080;-92
2023/08/05 02:58:04;;;;;;;16.80;7.65;;;19.60;82.10;;;;;;6187131;23;20021;-91
2023/08/05 03:00:33;;;;;;;13.95;6.78;;;19.50;82.10;;;;;;6163134;23;20021;-91
2023/08/05 03:03:01;;;;;;;13.65;7.55;;;19.50;82.20;;;;;;6162804;23;20104;-92
2023/08/05 03:05:30;;;;;;;13.23;7.60;;;19.50;82.50;;;;;;6162888;23;20017;-92
2023/08/05 03:08:00;;;;;;;13.97;7.23;;;19.40;82.70;;;;;;6162470;23;20095;-91
2023/08/05 03:10:30;;;;;;;15.85;8.07;;;19.40;82.80;;;;;;6162550;23;20021;-92
2023/08/05 03:12:58;;;;;;;13.68;7.25;;;19.40;82.90;;;;;;6162360;23;20027;-91
2023/08/05 03:15:29;;;;;;;13.57;7.68;;;19.30;83.00;;;;;;6162386;23;20013;-91
2023/08/05 03:18:00;;;;;;;17.08;7.22;;;19.30;83.20;;;;;;6163563;23;20063;-92
2023/08/05 03:20:34;;;;;;;13.70;7.10;;;19.30;83.30;;;;;;6163152;23;20017;-92
2023/08/05 03:23:10;;;;;;;17.35;7.40;;;19.20;83.70;;;;;;6186800;23;20020;-92
2023/08/05 03:25:42;;;;;;;14.88;7.05;;;19.20;83.60;;;;;;6163130;23;20020;-92
2023/08/05 03:28:12;;;;;;;13.93;7.72;;;19.20;83.60;;;;;;6162400;23;20056;-92
2023/08/05 03:30:44;;;;;;;14.25;7.80;;;19.10;83.70;;;;;;6187056;23;20044;-91
2023/08/05 03:33:22;;;;;;;15.47;7.20;;;19.10;83.70;;;;;;6163073;23;20017;-91
2023/08/05 03:35:50;;;;;;;15.50;7.28;;;19.20;83.70;;;;;;6186621;23;20104;-92
2023/08/05 03:38:21;;;;;;;12.98;6.45;;;19.20;83.60;;;;;;6162508;23;20024;-92
2023/08/05 03:41:18;;;;;;;14.45;7.82;;;19.20;83.50;;;;;;6161954;23;20017;-91
2023/08/05 03:44:05;;;;;;;14.68;7.00;;;19.20;83.50;;;;;;6155706;23;20013;-92
2023/08/05 03:46:37;;;;;;;15.57;7.13;;;19.10;83.70;;;;;;6163090;23;20348;-92
2023/08/05 03:49:08;;;;;;;15.80;7.85;;;19.10;83.90;;;;;;6186759;23;20080;-91
2023/08/05 03:51:36;;;;;;;14.48;6.75;;;19.20;83.70;;;;;;6186796;23;20452;-92
2023/08/05 03:54:08;;;;;;;17.90;9.07;;;19.20;83.70;;;;;;6162217;23;20048;-92
2023/08/05 03:56:39;;;;;;;15.32;8.45;;;19.10;83.90;;;;;;6162923;23;20482;-92
2023/08/05 03:59:07;;;;;;;14.40;8.03;;;19.10;84.20;;;;;;6161506;23;20079;-93
2023/08/05 04:01:35;;;;;;;12.63;7.28;;;19.00;84.40;;;;;;6161664;23;20104;-92
2023/08/05 04:04:05;;;;;;;15.27;8.30;;;19.10;84.40;;;;;;6162573;23;20025;-91
2023/08/05 04:06:32;;;;;;;15.40;7.38;;;19.10;84.50;;;;;;6161806;23;20021;-92
2023/08/05 04:09:00;;;;;;;17.58;9.48;;;19.00;84.80;;;;;;6162516;23;20045;-92
2023/08/05 04:11:32;;;;;;;15.30;8.40;;;18.90;85.10;;;;;;6162175;23;20048;-92
2023/08/05 04:14:08;;;;;;;12.15;7.25;;;18.80;85.50;;;;;;6162279;23;20105;-92
2023/08/05 04:16:36;;;;;;;13.80;6.93;;;18.80;85.40;;;;;;6161681;23;20388;-92
2023/08/05 04:19:06;;;;;;;13.50;6.43;;;18.70;85.60;;;;;;6162635;23;20021;-91
2023/08/05 04:21:39;;;;;;;12.95;5.60;;;18.60;85.60;;;;;;6161865;23;20025;-91
2023/08/05 04:24:09;;;;;;;12.50;6.60;;;18.60;85.80;;;;;;6162358;23;20021;-92
2023/08/05 04:26:40;;;;;;;11.75;5.03;;;18.50;86.00;;;;;;6161547;23;20024;-91
2023/08/05 04:29:09;;;;;;;11.65;5.43;;;18.60;85.60;;;;;;6185863;23;20068;-92
2023/08/05 04:31:38;;;;;;;11.75;5.53;;;18.50;85.10;;;;;;6161809;23;20080;-92
2023/08/05 04:34:44;;;;;;;15.02;5.20;;;18.50;85.40;;;;;;6160614;23;20017;-91
2023/08/05 04:37:27;;;;;;;10.13;4.53;;;18.60;85.10;;;;;;6163923;23;20389;-92
2023/08/05 04:39:57;;;;;;;11.73;4.40;;;18.60;85.00;;;;;;6162035;23;20036;-92
2023/08/05 04:42:24;;;;;;;8.27;4.68;;;18.60;84.80;;;;;;6161503;23;20379;-92
2023/08/05 04:44:56;;;;;;;11.77;4.65;;;18.50;84.70;;;;;;6161364;23;20028;-91
2023/08/05 04:47:23;;;;;;;9.68;4.65;;;18.40;85.20;;;;;;6161873;23;20025;-92
2023/08/05 04:49:51;;;;;;;11.43;4.50;;;18.40;85.40;;;;;;6161460;23;20355;-91
2023/08/05 04:52:18;;;;;;;10.23;4.35;;;18.30;85.30;;;;;;6161287;23;20056;-92
2023/08/05 04:54:46;;;;;;;13.32;4.85;;;18.30;85.40;;;;;;6161367;23;20409;-92
2023/08/05 04:57:16;;;;;;;9.07;4.47;;;18.30;85.70;;;;;;6162116;23;20025;-91
2023/08/05 04:59:44;;;;;;;10.93;4.75;;;18.30;85.90;;;;;;6161601;23;20343;-92
2023/08/05 05:02:14;;;;;;;10.67;4.83;;;18.20;85.80;;;;;;6162109;23;20079;-92
2023/08/05 05:04:41;;;;;;;10.48;4.80;;;18.20;86.10;;;;;;6186013;23;20028;-94
2023/08/05 05:07:08;;;;;;;11.07;4.57;;;18.20;86.30;;;;;;6160709;23;20103;-93
2023/08/05 05:09:36;;;;;;;12.30;4.82;;;18.20;85.90;;;;;;6186737;23;20075;-92
2023/08/05 05:12:05;;;;;;;11.68;4.80;;;18.30;86.10;;;;;;6162485;23;20017;-92
2023/08/05 05:14:41;;;;;;;9.83;4.53;;;18.30;86.00;;;;;;6161166;23;20024;-93
2023/08/05 05:17:18;;;;;;;10.30;4.57;;;18.30;85.90;;;;;;6186257;23;20051;-93
2023/08/05 05:19:52;;;;;;;10.82;4.72;;;18.30;85.70;;;;;;6161658;23;20021;-92
2023/08/05 05:22:25;;;;;;;10.38;4.57;;;18.30;86.00;;;;;;6161309;23;20047;-91
2023/08/05 05:24:52;;;;;;;10.25;4.72;;;18.20;86.10;;;;;;6161081;23;20067;-92
2023/08/05 05:27:20;;;;;;;9.63;4.90;;;18.20;86.30;;;;;;6186063;23;20017;-92
2023/08/05 05:29:47;;;;;;;13.40;4.10;;;18.30;85.80;;;;;;6161758;23;20020;-93
2023/08/05 05:32:20;;;;;;;9.40;4.38;;;18.30;85.80;;;;;;6185733;23;20021;-92
2023/08/05 05:34:51;;;;;;;10.52;4.82;;;18.40;85.40;;;;;;6161436;23;20021;-95
2023/08/05 05:37:21;;;;;;;9.27;4.68;;;18.40;85.50;;;;;;6166765;23;20028;-96
2023/08/05 05:39:48;;;;;;;8.20;3.90;;;18.40;85.30;;;;;;6165179;23;20021;-94
2023/08/05 05:42:18;;;;;;;10.57;4.60;;;18.30;85.10;;;;;;6168837;23;20028;-95
2023/08/05 05:44:53;;;;;;;10.13;4.90;;;18.40;85.60;;;;;;6172249;23;20416;-95
2023/08/05 05:47:29;;;;;;;9.27;4.20;;;18.40;85.10;;;;;;6174572;23;20021;-96
2023/08/05 05:50:03;;;;;;;10.85;5.07;;;18.40;85.20;;;;;;6180669;23;20025;-95
2023/08/05 05:52:34;;;;;;;10.07;5.00;;;18.50;85.20;;;;;;6174160;23;20017;-95
2023/08/05 05:55:05;;;;;;;12.30;4.68;;;18.50;85.20;;;;;;6176133;23;20017;-95
2023/08/05 05:57:33;;;;;;;8.95;4.80;;;18.40;85.20;;;;;;6173611;23;20066;-96
2023/08/05 06:00:10;;;;;;;13.50;4.70;;;18.30;85.60;;;;;;6171773;23;20025;-95
2023/08/05 06:07:07;;;;;;;13.03;5.40;;;18.30;86.10;;;;;;6207762;23;20075;-96
2023/08/05 06:10:25;;;;;;;10.15;5.28;;;18.20;86.10;;;;;;6101074;23;20022;-95
2023/08/05 06:13:03;;;;;;;10.45;5.20;;;18.10;86.50;;;;;;6195444;23;20017;-94
2023/08/05 06:15:43;;;;;;;10.25;5.00;;;18.00;86.80;;;;;;6173379;23;20109;-95
2023/08/05 06:18:32;;;;;;;11.68;5.55;;;18.00;87.00;;;;;;6175669;23;20052;-95
2023/08/05 06:21:02;;;;;;;11.30;5.77;;;18.00;87.00;;;;;;6170881;23;20024;-95
2023/08/05 06:23:36;;;;;;;13.13;6.60;;;18.10;87.10;;;;;;6172338;23;20063;-94
2023/08/05 06:30:18;;;;;;;13.68;6.70;;;18.00;87.10;;;;;;6202924;23;20028;-95
2023/08/05 06:33:22;;;;;;;12.40;6.03;;;18.00;87.20;;;;;;6207932;23;20454;-95
2023/08/05 06:35:57;;;;;;;11.53;5.87;;;18.00;87.40;;;;;;6179229;23;20021;-92
2023/08/05 06:38:26;;;;;;;12.23;6.05;;;18.00;87.40;;;;;;6190669;23;20100;-93
2023/08/05 06:40:55;;;;;;;12.48;6.28;;;18.00;87.20;;;;;;6167322;23;20029;-95
2023/08/05 06:43:23;;;;;;;12.85;5.97;;;18.10;87.00;;;;;;6188033;23;20021;-92
2023/08/05 06:45:53;;;;;;;12.25;6.95;;;18.10;86.90;;;;;;6162998;23;20045;-93
2023/08/05 06:48:20;;;;;;;11.23;6.47;;;18.10;87.20;;;;;;6187129;23;20025;-93
2023/08/05 06:50:47;;;;;;;11.73;6.63;;;18.10;86.80;;;;;;6162693;23;20400;-94
2023/08/05 06:53:14;;;;;;;13.13;6.53;;;18.20;87.00;;;;;;6186795;23;20016;-92
2023/08/05 06:55:42;;;;;;;13.60;6.95;;;18.20;86.60;;;;;;6162587;23;20017;-93
2023/08/05 06:58:11;;;;;;;14.55;7.10;;;18.20;86.90;;;;;;6188279;23;20332;-92
2023/08/05 07:00:39;;;;;;;13.10;7.23;;;18.20;86.70;;;;;;6187664;23;20021;-90
2023/08/05 07:03:12;;;;;;;12.45;6.78;;;18.20;86.80;;;;;;6163104;23;20021;-91
2023/08/05 07:05:41;;;;;;;12.50;6.90;;;18.30;86.80;;;;;;6161910;23;20021;-91
2023/08/05 07:08:34;;;;;;;;;;;;;;;;;;;;;
2023/08/05 07:15:10;;;;;;;12.60;6.53;;;18.30;86.40;;;;;;6190338;23;20066;-91
2023/08/05 07:18:12;;;;;;;14.63;8.27;;;18.30;86.40;;;;;;6165838;23;20100;-92
2023/08/05 07:20:40;;;;;;;15.20;7.80;;;18.30;86.60;;;;;;6187273;23;20043;-90
2023/08/05 07:23:08;;;;;;;15.15;8.32;;;18.30;86.30;;;;;;6162056;23;20025;-88
2023/08/05 07:25:39;;;;;;;13.88;6.90;;;18.50;86.50;;;;;;6162613;23;20051;-89
2023/08/05 07:28:10;;;;;;;13.67;7.67;;;18.50;86.00;;;;;;6186275;23;20017;-90
2023/08/05 07:31:10;;;;;;;14.25;7.88;;;18.50;86.00;;;;;;6165718;23;20089;-90
2023/08/05 07:33:37;;;;;;;12.63;7.35;;;18.50;86.20;;;;;;6162301;23;20336;-88
2023/08/05 07:40:29;;;;;;;11.13;6.93;;;18.70;86.00;;;;;;6204166;23;20012;-96
2023/08/05 07:43:09;;;;;;;12.83;6.60;;;18.80;85.50;;;;;;6202146;23;20021;-96
2023/08/05 07:48:58;;;;;;;13.23;6.63;;;18.80;85.40;;;;;;6196513;23;20021;-93
2023/08/05 07:51:39;;;;;;;12.20;6.97;;;18.80;85.30;;;;;;6181069;23;20028;-95
2023/08/05 07:54:13;;;;;;;10.45;6.22;;;18.80;85.20;;;;;;6175300;23;20017;-92
2023/08/05 07:56:42;;;;;;;11.97;6.90;;;18.80;85.50;;;;;;6192033;23;20402;-92
2023/08/05 07:59:12;;;;;;;11.13;7.07;;;18.80;85.50;;;;;;6192821;23;20076;-92
2023/08/05 08:01:53;;;;;;;11.07;6.60;;;18.80;85.40;;;;;;6170188;23;20036;-94
2023/08/05 08:04:24;;;;;;;12.65;6.90;;;18.80;85.00;;;;;;6199091;23;20032;-92
2023/08/05 08:06:52;;;;;;;13.52;7.18;;;18.80;85.40;;;;;;6171558;23;20027;-94
2023/08/05 08:09:19;;;;;;;13.07;7.53;;;18.90;85.60;;;;;;6170378;23;20100;-88
2023/08/05 08:11:46;;;;;;;11.77;7.32;;;18.90;85.20;;;;;;6167245;23;20063;-92
2023/08/05 08:14:13;;;;;;;11.27;7.07;;;19.00;85.40;;;;;;6166386;23;20017;-93
2023/08/05 08:16:41;;;;;;;13.15;7.43;;;19.00;85.00;;;;;;6166591;23;20102;-93
2023/08/05 08:19:08;;;;;;;12.38;7.25;;;19.00;84.90;;;;;;6191603;23;20034;-92
2023/08/05 08:21:35;;;;;;;12.57;7.57;;;19.00;84.80;;;;;;6191291;23;20403;-91
2023/08/05 08:24:03;;;;;;;13.35;7.85;;;18.90;85.10;;;;;;6166176;23;20451;-91
2023/08/05 08:26:39;;;;;;;13.93;7.93;;;19.00;85.00;;;;;;6166475;23;20020;-90
2023/08/05 08:29:07;;;;;;;12.77;7.22;;;18.90;84.90;;;;;;6166935;23;20062;-93
2023/08/05 08:31:37;;;;;;;15.32;7.65;;;18.90;85.00;;;;;;6191064;23;20044;-91
2023/08/05 08:34:04;;;;;;;13.70;7.57;;;18.90;85.20;;;;;;6166237;23;20067;-91
2023/08/05 08:36:31;;;;;;;15.32;8.93;;;18.90;84.50;;;;;;6165883;23;20025;-89
2023/08/05 08:38:58;;;;;;;12.93;7.57;;;18.80;84.90;;;;;;6190913;23;20502;-89
2023/08/05 08:41:27;;;;;;;13.23;8.15;;;18.90;85.10;;;;;;6165484;23;20012;-89
2023/08/05 08:43:55;;;;;;;11.70;7.35;;;18.90;85.10;;;;;;6165923;23;20016;-90
2023/08/05 08:46:22;;;;;;;13.43;8.23;;;18.90;84.90;;;;;;6166309;23;20394;-90
2023/08/05 08:48:51;;;;;;;10.77;7.45;;;18.80;84.80;;;;;;6165967;23;20016;-90
2023/08/05 08:51:21;;;;;;;13.13;7.97;;;18.80;85.10;;;;;;6185597;23;20025;-90
2023/08/05 08:53:50;;;;;;;13.13;7.10;;;18.90;85.10;;;;;;6156348;23;20045;-90
2023/08/05 08:56:17;;;;;;;13.10;7.53;;;18.90;85.30;;;;;;6136689;23;20017;-90
2023/08/05 08:58:44;;;;;;;13.13;7.13;;;18.90;85.10;;;;;;6136410;23;20122;-90
2023/08/05 09:01:14;;;;;;;12.38;7.35;;;19.00;85.30;;;;;;6161186;23;20032;-90
2023/08/05 09:03:42;;;;;;;12.70;7.70;;;19.00;85.10;;;;;;6136397;23;20021;-90
2023/08/05 09:06:09;;;;;;;13.38;7.65;;;19.10;85.10;;;;;;6160708;23;20032;-91
2023/08/05 09:08:37;;;;;;;14.82;8.60;;;19.10;84.70;;;;;;6135887;23;20021;-90
2023/08/05 09:11:04;;;;;;;13.80;7.90;;;19.10;84.40;;;;;;6136438;23;20017;-91
2023/08/05 09:13:31;;;;;;;12.95;8.20;;;19.00;84.80;;;;;;6136614;23;20013;-90
2023/08/05 09:15:58;;;;;;;13.13;8.80;;;19.10;84.80;;;;;;6136596;23;20040;-90
2023/08/05 09:18:25;;;;;;;13.32;8.57;;;19.20;84.70;;;;;;6136673;23;20459;-90
2023/08/05 09:20:52;;;;;;;14.15;9.02;;;19.20;84.70;;;;;;6136238;23;20477;-90
2023/08/05 09:23:19;;;;;;;14.63;8.03;;;19.20;83.90;;;;;;6136419;23;20020;-91
2023/08/05 09:25:48;;;;;;;15.52;8.93;;;19.20;84.30;;;;;;6136002;23;20481;-91
2023/08/05 09:28:30;;;;;;;13.82;8.63;;;19.20;84.10;;;;;;6160659;23;20017;-90
2023/08/05 09:31:13;;;;;;;14.32;8.52;;;19.30;84.50;;;;;;6136128;23;20017;-90
2023/08/05 09:33:41;;;;;;;14.95;9.50;;;19.30;84.40;;;;;;6154797;23;20017;-90
2023/08/05 09:36:12;;;;;;;14.90;9.40;;;19.30;84.00;;;;;;6160382;23;20100;-91
2023/08/05 09:38:40;;;;;;;16.52;9.45;;;19.30;84.50;;;;;;6136240;23;20021;-90
2023/08/05 09:41:07;;;;;;;16.67;10.55;;;19.40;83.90;;;;;;6136408;23;20476;-90
2023/08/05 09:43:39;;;;;;;17.88;9.65;;;19.40;83.80;;;;;;6153077;23;20075;-91
2023/08/05 09:46:11;;;;;;;18.73;9.95;;;19.50;84.10;;;;;;6135758;23;20028;-90
2023/08/05 09:48:41;;;;;;;16.03;9.30;;;19.50;84.00;;;;;;6136457;23;20021;-90
2023/08/05 09:51:15;;;;;;;15.55;9.07;;;19.40;83.70;;;;;;6139094;23;20049;-90
2023/08/05 09:53:43;;;;;;;15.73;10.35;;;19.40;84.30;;;;;;6136797;23;20020;-90
2023/08/05 09:56:12;;;;;;;19.35;10.27;;;19.50;84.50;;;;;;6187366;23;20017;-91
2023/08/05 09:58:39;;;;;;;17.92;11.00;;;19.50;83.90;;;;;;6138029;23;20059;-90
2023/08/05 10:01:07;;;;;;;18.70;11.80;;;19.50;84.00;;;;;;6187418;23;20463;-90
2023/08/05 10:03:38;;;;;;;16.00;10.00;;;19.60;84.10;;;;;;6162712;23;20104;-90
2023/08/05 10:06:07;;;;;;;18.15;11.02;;;19.60;83.70;;;;;;6162628;23;20029;-90
2023/08/05 10:08:40;;;;;;;16.65;10.50;;;19.60;83.40;;;;;;6187092;23;20017;-90
2023/08/05 10:11:08;;;;;;;17.75;11.05;;;19.60;83.70;;;;;;6162633;23;20075;-90
2023/08/05 10:13:38;;;;;;;18.27;11.07;;;19.60;83.70;;;;;;6186979;23;20021;-90
2023/08/05 10:16:08;;;;;;;17.85;11.27;;;19.70;83.50;;;;;;6162232;23;20017;-90
2023/08/05 10:18:37;;;;;;;18.23;11.65;;;19.60;83.40;;;;;;6162012;23;20021;-90
2023/08/05 10:21:05;;;;;;;19.52;11.23;;;19.60;83.50;;;;;;6138008;23;20021;-91
2023/08/05 10:23:35;;;;;;;16.80;11.15;;;19.60;83.80;;;;;;6162068;23;20048;-90
2023/08/05 10:26:04;;;;;;;22.10;13.10;;;19.60;83.80;;;;;;6162142;23;20029;-91
2023/08/05 10:28:35;;;;;;;19.70;12.68;;;19.60;83.90;;;;;;6162362;23;20024;-90
2023/08/05 10:31:03;;;;;;;21.13;12.60;;;19.70;83.70;;;;;;6162320;23;20054;-90
2023/08/05 10:33:31;;;;;;;21.88;13.88;;;19.80;83.30;;;;;;6137700;23;20052;-90
2023/08/05 10:36:03;;;;;;;21.40;13.85;;;19.80;83.20;;;;;;6162233;23;20024;-90
2023/08/05 10:38:41;;;;;;;19.87;12.53;;;19.70;83.70;;;;;;6162016;23;20016;-90
2023/08/05 10:41:10;;;;;;;18.77;11.15;;;19.80;83.60;;;;;;6162935;23;20099;-90
2023/08/05 10:43:41;;;;;;;19.23;11.68;;;19.90;83.30;;;;;;6186560;23;20024;-90
2023/08/05 10:46:12;;;;;;;18.98;11.40;;;20.00;83.00;;;;;;6162539;23;20447;-90
2023/08/05 10:48:49;;;;;;;17.92;11.00;;;20.00;82.80;;;;;;6161897;23;20068;-90
2023/08/05 10:51:22;;;;;;;18.73;11.43;;;20.10;82.60;;;;;;6191644;23;20017;-90
2023/08/05 10:53:56;;;;;;;16.88;11.52;;;20.10;82.50;;;;;;6191619;23;20012;-90
2023/08/05 10:56:33;;;;;;;17.58;11.13;;;20.10;82.30;;;;;;6191989;23;20016;-90
2023/08/05 10:59:04;;;;;;;17.08;11.60;;;19.90;82.70;;;;;;6191463;23;20024;-90
2023/08/05 11:01:53;;;;;;;19.55;12.27;;;19.90;83.20;;;;;;6167817;23;20036;-90
2023/08/05 11:04:30;;;;;;;19.03;11.73;;;19.90;83.40;;;;;;6191912;23;20075;-91
2023/08/05 11:07:00;;;;;;;17.95;11.60;;;19.90;82.80;;;;;;6192010;23;20032;-90
2023/08/05 11:09:33;;;;;;;17.35;11.32;;;19.90;83.20;;;;;;6191693;23;20013;-90
2023/08/05 11:12:00;;;;;;;14.63;10.43;;;20.00;82.90;;;;;;6191965;23;20392;-90
2023/08/05 11:14:28;;;;;;;15.35;10.02;;;20.10;82.40;;;;;;6191624;23;20021;-90
2023/08/05 11:17:02;;;;;;;14.63;9.90;;;20.10;82.00;;;;;;6191929;23;20343;-90
2023/08/05 11:19:49;;;;;;;15.32;9.60;;;20.10;81.90;;;;;;6191682;23;20104;-90
2023/08/05 11:22:35;;;;;;;15.38;9.77;;;20.20;82.60;;;;;;6191452;23;20021;-90
2023/08/05 11:25:04;;;;;;;14.55;9.77;;;20.30;82.20;;;;;;6192026;23;20096;-90
2023/08/05 11:27:39;;;;;;;14.05;9.70;;;20.30;82.10;;;;;;6191841;23;20025;-91
2023/08/05 11:30:13;;;;;;;14.17;8.80;;;20.40;81.40;;;;;;6191390;23;20029;-90
2023/08/05 11:32:52;;;;;;;16.67;10.23;;;20.40;81.10;;;;;;6190890;23;20016;-90
2023/08/05 11:35:19;;;;;;;18.25;10.57;;;20.40;81.60;;;;;;6191433;23;20020;-90
2023/08/05 11:37:46;;;;;;;17.75;10.95;;;20.40;81.60;;;;;;6166917;23;20027;-90
2023/08/05 11:40:14;;;;;;;16.67;10.85;;;20.40;81.60;;;;;;6191416;23;20020;-90
2023/08/05 11:42:41;;;;;;;18.07;11.43;;;20.30;82.00;;;;;;6191314;23;20051;-90
2023/08/05 11:45:12;;;;;;;18.60;12.05;;;20.40;81.80;;;;;;6191497;23;20507;-90
2023/08/05 11:47:41;;;;;;;16.42;11.38;;;20.40;82.10;;;;;;6165524;23;20023;-90
2023/08/05 11:50:10;;;;;;;17.88;11.65;;;20.30;81.80;;;;;;6191468;23;20016;-90
2023/08/05 11:52:39;;;;;;;16.77;11.38;;;20.30;81.90;;;;;;6191064;23;20023;-91
2023/08/05 11:55:08;;;;;;;19.97;12.90;;;20.40;81.90;;;;;;6166701;23;20462;-90
2023/08/05 11:57:35;;;;;;;19.55;12.55;;;20.30;82.00;;;;;;6191259;23;20112;-90
2023/08/05 12:00:08;;;;;;;21.42;13.55;;;20.10;82.30;;;;;;6166632;23;20032;-90
2023/08/05 12:02:36;;;;;;;20.85;13.98;;;20.00;83.00;;;;;;6166336;23;20520;-90
2023/08/05 12:05:04;;;;;;;21.90;12.35;;;20.00;83.50;;;;;;6190823;23;20020;-90
2023/08/05 12:07:41;;;;;;;23.43;13.77;;;20.00;83.30;;;;;;6191240;23;20029;-90
2023/08/05 12:10:15;;;;;;;22.25;14.40;;;20.00;83.40;;;;;;6216037;23;20435;-91
2023/08/05 12:12:44;;;;;;;22.73;14.05;;;20.00;83.40;;;;;;6191559;23;20040;-90
2023/08/05 12:15:25;;;;;;;22.13;14.25;;;20.10;83.20;;;;;;6191336;23;20023;-90
2023/08/05 12:17:56;;;;;;;20.27;13.00;;;20.00;82.70;;;;;;6191175;23;20021;-90
2023/08/05 12:20:32;;;;;;;22.67;13.10;;;20.10;83.10;;;;;;6166426;23;20028;-90
2023/08/05 12:23:00;;;;;;;20.88;13.10;;;20.10;82.60;;;;;;6191198;23;20018;-90
2023/08/05 12:25:28;;;;;;;23.10;13.13;;;20.10;82.70;;;;;;6190730;23;20071;-90
2023/08/05 12:27:55;;;;;;;21.25;12.98;;;20.20;82.50;;;;;;6165952;23;20107;-91
2023/08/05 12:30:23;;;;;;;22.92;14.00;;;20.20;82.30;;;;;;6190966;23;20502;-90
2023/08/05 12:32:51;;;;;;;20.53;13.13;;;20.20;82.30;;;;;;6165679;23;20070;-90
2023/08/05 12:35:18;;;;;;;20.63;13.57;;;20.10;82.40;;;;;;6190803;23;20470;-90
2023/08/05 12:37:45;;;;;;;17.25;11.38;;;20.10;82.70;;;;;;6216041;23;20012;-90
2023/08/05 12:40:13;;;;;;;19.05;12.82;;;20.10;82.50;;;;;;6191046;23;20025;-90
2023/08/05 12:42:40;;;;;;;20.30;12.50;;;20.20;82.60;;;;;;6191016;23;20074;-90
2023/08/05 12:45:08;;;;;;;20.40;12.07;;;20.20;82.50;;;;;;6190837;23;20021;-90
2023/08/05 12:47:38;;;;;;;21.27;12.25;;;20.20;82.60;;;;;;6166546;23;20046;-90
2023/08/05 12:50:07;;;;;;;18.75;12.15;;;20.30;82.20;;;;;;6191383;23;20020;-90
2023/08/05 12:52:34;;;;;;;19.58;12.32;;;20.30;81.60;;;;;;6164977;23;20447;-90
2023/08/05 12:55:02;;;;;;;17.50;11.60;;;20.40;81.70;;;;;;6190749;23;20020;-90
2023/08/05 12:57:30;;;;;;;20.57;11.50;;;20.50;81.30;;;;;;6165492;23;20024;-90
2023/08/05 12:59:57;;;;;;;19.35;12.23;;;20.60;81.50;;;;;;6190665;23;20027;-90
2023/08/05 13:02:24;;;;;;;19.77;11.73;;;20.60;81.40;;;;;;6165837;23;20017;-90
2023/08/05 13:04:52;;;;;;;17.58;11.18;;;20.70;81.40;;;;;;6190429;23;20047;-90
2023/08/05 13:07:19;;;;;;;18.90;12.02;;;20.70;81.00;;;;;;6190488;23;20474;-90
2023/08/05 13:09:46;;;;;;;17.93;12.23;;;20.70;80.70;;;;;;6190713;23;20020;-90
2023/08/05 13:12:13;;;;;;;16.65;11.10;;;20.60;81.20;;;;;;6190458;23;20020;-89
2023/08/05 13:14:42;;;;;;;16.95;11.85;;;20.50;81.30;;;;;;6190618;23;20029;-90
2023/08/05 13:17:10;;;;;;;18.58;12.88;;;20.50;81.40;;;;;;6190826;23;20013;-90